createdAt,value
2023-01-29T00:00:11.091Z,3.50
2023-01-29T00:01:16.850Z,3.40
2023-01-29T00:02:20.453Z,3.40
2023-01-29T00:03:23.662Z,3.40
2023-01-29T00:04:28.331Z,3.40
2023-01-29T00:05:32.457Z,3.40
2023-01-29T00:06:35.276Z,3.40
2023-01-29T00:07:39.163Z,3.40
2023-01-29T00:08:44.454Z,3.40
2023-01-29T00:09:47.720Z,3.40
2023-01-29T00:10:51.531Z,3.40
2023-01-29T00:11:53.912Z,3.40
2023-01-29T00:12:57.132Z,3.40
2023-01-29T00:13:59.316Z,3.40
2023-01-29T00:15:02.719Z,3.40
2023-01-29T00:16:05.558Z,3.40
2023-01-29T00:17:08.861Z,3.40
2023-01-29T00:18:11.150Z,3.30
2023-01-29T00:19:14.277Z,3.30
2023-01-29T00:20:17.482Z,3.30
2023-01-29T00:21:23.222Z,3.30
2023-01-29T00:22:25.855Z,3.30
2023-01-29T00:23:29.297Z,3.30
2023-01-29T00:24:33.144Z,3.30
2023-01-29T00:25:36.678Z,3.20
2023-01-29T00:26:40.213Z,3.20
2023-01-29T00:27:44.007Z,3.20
2023-01-29T00:28:48.447Z,3.20
2023-01-29T00:30:07.545Z,3.20
2023-01-29T00:31:12.920Z,3.20
2023-01-29T00:32:15.602Z,3.20
2023-01-29T00:33:19.411Z,3.10
2023-01-29T00:34:24.440Z,3.10
2023-01-29T00:35:26.732Z,3.10
2023-01-29T00:36:30.973Z,3.10
2023-01-29T00:37:33.581Z,3.00
2023-01-29T00:38:40.688Z,3.00
2023-01-29T00:39:48.217Z,3.00
2023-01-29T00:41:21.346Z,3.00
2023-01-29T00:42:42.339Z,3.00
2023-01-29T00:44:02.774Z,3.00
2023-01-29T00:45:07.913Z,3.00
2023-01-29T00:46:10.136Z,3.00
2023-01-29T00:47:28.158Z,3.00
2023-01-29T00:48:38.370Z,2.90
2023-01-29T00:49:41.279Z,2.90
2023-01-29T00:50:44.568Z,2.90
2023-01-29T00:52:07.575Z,2.90
2023-01-29T00:53:10.710Z,2.90
2023-01-29T00:54:13.892Z,2.90
2023-01-29T00:55:20.842Z,2.90
2023-01-29T00:56:28.458Z,2.80
2023-01-29T00:58:13.386Z,2.80
2023-01-29T00:59:26.645Z,2.80
2023-01-29T06:14:00.034Z,2.20
2023-01-29T06:15:02.157Z,2.20
2023-01-29T06:16:06.818Z,2.20
2023-01-29T06:17:09.069Z,2.20
2023-01-29T06:18:12.199Z,2.20
2023-01-29T06:19:14.393Z,2.30
2023-01-29T06:20:18.066Z,2.20
2023-01-29T06:21:20.360Z,2.30
2023-01-29T06:22:23.529Z,2.30
2023-01-29T06:23:25.689Z,2.30
2023-01-29T06:24:28.911Z,2.30
2023-01-29T06:25:31.141Z,2.30
2023-01-29T06:26:34.246Z,2.30
2023-01-29T06:27:36.690Z,2.30
2023-01-29T06:28:40.191Z,2.30
2023-01-29T06:29:44.708Z,2.30
2023-01-29T06:30:46.911Z,2.30
2023-01-29T06:31:50.195Z,2.30
2023-01-29T06:32:56.343Z,2.30
2023-01-29T06:33:59.745Z,2.30
2023-01-29T06:35:01.928Z,2.30
2023-01-29T06:36:06.834Z,2.40
2023-01-29T06:37:09.057Z,2.40
2023-01-29T06:38:12.171Z,2.40
2023-01-29T06:39:14.350Z,2.50
2023-01-29T06:40:17.991Z,2.50
2023-01-29T06:41:25.172Z,2.50
2023-01-29T06:42:28.753Z,2.50
2023-01-29T06:43:31.067Z,2.50
2023-01-29T06:44:34.195Z,2.60
2023-01-29T06:45:37.826Z,2.60
2023-01-29T06:46:41.067Z,2.60
2023-01-29T06:47:43.171Z,2.60
2023-01-29T06:48:46.338Z,2.70
2023-01-29T06:49:48.523Z,2.70
2023-01-29T06:50:51.988Z,2.70
2023-01-29T06:51:54.162Z,2.70
2023-01-29T06:52:57.298Z,2.80
2023-01-29T06:54:01.599Z,2.80
2023-01-29T06:55:04.730Z,2.80
2023-01-29T06:56:08.824Z,2.80
2023-01-29T06:57:11.063Z,2.80
2023-01-29T06:58:14.802Z,2.80
2023-01-29T06:59:17.949Z,2.80
2023-01-29T07:00:27.225Z,2.80
2023-01-29T07:01:36.707Z,2.80
2023-01-29T07:02:38.930Z,2.80
2023-01-29T07:03:43.500Z,2.80
2023-01-29T07:04:45.662Z,2.80
2023-01-29T07:05:53.033Z,2.90
2023-01-29T07:06:55.242Z,2.90
2023-01-29T07:07:58.726Z,2.90
2023-01-29T07:09:00.921Z,3.00
2023-01-29T07:10:04.097Z,3.00
2023-01-29T07:11:07.966Z,3.00
2023-01-29T07:12:12.366Z,3.00
2023-01-29T07:13:14.641Z,3.10
2023-01-29T07:14:17.935Z,3.10
2023-01-29T07:15:21.382Z,3.10
2023-01-29T07:16:25.125Z,3.10
2023-01-29T07:17:29.652Z,3.10
2023-01-29T07:18:32.015Z,3.20
2023-01-29T07:19:35.219Z,3.20
2023-01-29T07:20:37.651Z,3.20
2023-01-29T07:21:40.807Z,3.20
2023-01-29T07:22:42.885Z,3.20
2023-01-29T07:23:45.987Z,3.20
2023-01-29T07:24:48.458Z,3.20
2023-01-29T07:25:51.935Z,3.20
2023-01-29T07:26:54.023Z,3.10
2023-01-29T07:27:59.936Z,3.10
2023-01-29T07:29:04.830Z,3.10
2023-01-29T07:30:09.547Z,3.20
2023-01-29T07:31:14.666Z,3.20
2023-01-29T07:32:17.911Z,3.20
2023-01-29T07:33:21.471Z,3.20
2023-01-29T07:34:24.613Z,3.30
2023-01-29T07:35:26.781Z,3.30
2023-01-29T07:36:30.039Z,3.30
2023-01-29T07:37:32.246Z,3.30
2023-01-29T07:38:35.525Z,3.40
2023-01-29T07:39:38.606Z,3.30
2023-01-29T07:40:40.733Z,3.30
2023-01-29T07:41:43.888Z,3.40
2023-01-29T07:42:46.810Z,3.40
2023-01-29T07:43:50.256Z,3.40
2023-01-29T07:44:52.511Z,3.50
2023-01-29T07:45:55.706Z,3.50
2023-01-29T07:46:57.962Z,3.50
2023-01-29T07:48:01.232Z,3.60
2023-01-29T07:49:04.772Z,3.60
2023-01-29T07:50:08.765Z,3.60
2023-01-29T07:51:10.944Z,3.60
2023-01-29T07:52:14.059Z,3.60
2023-01-29T07:53:17.645Z,3.60
2023-01-29T07:54:20.086Z,3.70
2023-01-29T07:55:23.702Z,3.70
2023-01-29T07:56:25.846Z,3.70
2023-01-29T07:57:30.624Z,3.80
2023-01-29T07:58:34.394Z,3.80
2023-01-29T07:59:38.790Z,3.80
2023-01-29T08:00:40.981Z,3.80
2023-01-29T08:01:44.138Z,3.80
2023-01-29T08:02:46.265Z,3.80
2023-01-29T08:03:51.233Z,3.80
2023-01-29T08:04:54.998Z,3.80
2023-01-29T08:05:59.081Z,3.80
2023-01-29T08:07:01.253Z,3.80
2023-01-29T08:08:07.291Z,3.90
2023-01-29T08:09:10.940Z,3.90
2023-01-29T08:10:14.036Z,3.90
2023-01-29T08:11:16.220Z,3.80
2023-01-29T08:12:19.363Z,3.80
2023-01-29T08:13:21.494Z,3.90
2023-01-29T08:14:25.285Z,3.90
2023-01-29T08:15:29.962Z,3.90
2023-01-29T08:16:32.244Z,3.90
2023-01-29T08:17:52.552Z,3.90
2023-01-29T08:19:00.586Z,3.90
2023-01-29T08:20:05.038Z,3.90
2023-01-29T08:21:08.241Z,4.00
2023-01-29T08:22:10.426Z,4.00
2023-01-29T08:23:16.554Z,4.00
2023-01-29T08:24:18.807Z,4.00
2023-01-29T08:25:22.695Z,4.00
2023-01-29T08:26:27.401Z,4.00
2023-01-29T08:27:30.817Z,4.10
2023-01-29T08:28:33.297Z,4.10
2023-01-29T08:29:36.734Z,4.10
2023-01-29T08:30:39.037Z,4.10
2023-01-29T08:31:42.491Z,4.10
2023-01-29T08:32:44.717Z,4.10
2023-01-29T08:33:48.072Z,4.20
2023-01-29T08:34:50.249Z,4.20
2023-01-29T08:35:54.955Z,4.20
2023-01-29T08:36:57.237Z,4.10
2023-01-29T08:38:03.324Z,4.20
2023-01-29T08:39:05.647Z,4.20
2023-01-29T08:40:12.225Z,4.20
2023-01-29T08:41:14.447Z,4.20
2023-01-29T08:42:17.663Z,4.20
2023-01-29T08:43:19.781Z,4.20
2023-01-29T08:44:24.457Z,4.20
2023-01-29T08:45:26.712Z,4.10
2023-01-29T08:46:29.925Z,4.10
2023-01-29T08:47:32.145Z,4.10
2023-01-29T08:48:35.577Z,4.10
2023-01-29T08:49:37.880Z,4.10
2023-01-29T08:50:41.116Z,4.20
2023-01-29T08:51:45.724Z,4.20
2023-01-29T08:52:47.945Z,4.20
2023-01-29T08:53:51.701Z,4.20
2023-01-29T08:54:53.975Z,4.20
2023-01-29T08:55:57.143Z,4.30
2023-01-29T08:57:00.251Z,4.30
2023-01-29T08:58:05.399Z,4.30
2023-01-29T08:59:08.512Z,4.30
2023-01-29T09:00:11.808Z,4.40
2023-01-29T09:01:16.156Z,4.30
2023-01-29T09:02:18.383Z,4.40
2023-01-29T09:03:21.534Z,4.40
2023-01-29T09:04:24.740Z,4.40
2023-01-29T09:05:27.627Z,4.40
2023-01-29T09:06:30.814Z,4.50
2023-01-29T09:07:34.843Z,4.40
2023-01-29T09:08:38.092Z,4.40
2023-01-29T09:09:40.264Z,4.50
2023-01-29T09:10:43.401Z,4.50
2023-01-29T09:11:45.593Z,4.50
2023-01-29T09:12:48.740Z,4.60
2023-01-29T09:13:51.855Z,4.60
2023-01-29T09:14:54.039Z,4.60
2023-01-29T09:16:00.412Z,4.60
2023-01-29T09:17:03.516Z,4.60
2023-01-29T09:18:07.282Z,4.50
2023-01-29T09:19:09.712Z,4.50
2023-01-29T09:20:13.386Z,4.50
2023-01-29T09:21:16.964Z,4.50
2023-01-29T09:22:19.162Z,4.50
2023-01-29T09:23:23.710Z,4.50
2023-01-29T09:24:25.940Z,4.50
2023-01-29T09:25:29.067Z,4.50
2023-01-29T09:26:32.268Z,4.40
2023-01-29T09:27:34.445Z,4.50
2023-01-29T09:28:37.613Z,4.40
2023-01-29T09:29:39.748Z,4.50
2023-01-29T09:30:42.928Z,4.50
2023-01-29T09:31:45.103Z,4.50
2023-01-29T09:32:55.498Z,4.50
2023-01-29T09:33:58.635Z,4.50
2023-01-29T09:35:00.827Z,4.50
2023-01-29T09:36:05.190Z,4.50
2023-01-29T09:37:07.376Z,4.50
2023-01-29T09:38:11.160Z,4.50
2023-01-29T09:39:14.754Z,4.50
2023-01-29T09:40:27.334Z,4.50
2023-01-29T09:41:49.438Z,4.50
2023-01-29T09:43:02.021Z,4.60
2023-01-29T09:44:18.285Z,4.60
2023-01-29T09:45:24.824Z,4.60
2023-01-29T09:46:36.502Z,4.70
2023-01-29T09:47:38.833Z,4.70
2023-01-29T09:48:43.978Z,4.80
2023-01-29T09:49:52.675Z,4.80
2023-01-29T09:51:00.919Z,4.80
2023-01-29T09:52:08.500Z,4.90
2023-01-29T09:53:20.993Z,4.90
2023-01-29T09:54:31.874Z,4.90
2023-01-29T09:55:41.567Z,4.90
2023-01-29T09:56:47.486Z,4.90
2023-01-29T09:57:54.353Z,4.90
2023-01-29T10:00:29.275Z,5.00
2023-01-29T10:01:43.398Z,5.00
2023-01-29T10:03:04.155Z,4.90
2023-01-29T10:03:16.842Z,5.00
2023-01-29T10:04:57.647Z,5.00
2023-01-29T10:06:26.345Z,5.00
2023-01-29T10:07:57.892Z,5.10
2023-01-29T10:09:31.827Z,5.10
2023-01-29T10:10:50.626Z,5.10
2023-01-29T10:12:06.365Z,5.10
2023-01-29T10:13:22.155Z,5.10
2023-01-29T10:14:38.025Z,5.10
2023-01-29T10:16:02.207Z,5.10
2023-01-29T10:17:25.113Z,5.00
2023-01-29T10:18:48.382Z,5.00
2023-01-29T10:20:20.928Z,5.00
2023-01-29T10:21:59.797Z,5.10
2023-01-29T10:23:18.824Z,5.10
2023-01-29T10:24:32.262Z,5.10
2023-01-29T10:25:39.998Z,5.20
2023-01-29T10:26:43.223Z,5.10
2023-01-29T10:27:51.112Z,5.20
2023-01-29T10:28:59.691Z,5.20
2023-01-29T10:30:09.521Z,5.20
2023-01-29T10:31:20.746Z,5.20
2023-01-29T10:32:26.887Z,5.20
2023-01-29T10:33:49.323Z,5.30
2023-01-29T10:35:06.018Z,5.30
2023-01-29T10:36:14.873Z,5.40
2023-01-29T10:37:19.413Z,5.40
2023-01-29T10:38:38.639Z,5.40
2023-01-29T10:39:41.799Z,5.50
2023-01-29T10:40:57.054Z,5.50
2023-01-29T10:42:19.145Z,5.40
2023-01-29T10:43:38.669Z,5.50
2023-01-29T10:44:58.264Z,5.60
2023-01-29T10:46:17.665Z,5.60
2023-01-29T10:47:59.785Z,5.70
2023-01-29T10:49:21.249Z,5.70
2023-01-29T10:50:42.726Z,5.70
2023-01-29T10:52:02.971Z,5.80
2023-01-29T10:53:26.923Z,5.80
2023-01-29T10:54:58.889Z,5.80
2023-01-29T10:56:22.728Z,5.80
2023-01-29T10:57:47.374Z,5.80
2023-01-29T10:58:54.949Z,5.70
2023-01-29T11:00:12.798Z,5.80
2023-01-29T11:01:16.608Z,5.80
2023-01-29T11:02:22.051Z,5.90
2023-01-29T11:03:28.928Z,6.00
2023-01-29T11:04:34.572Z,6.00
2023-01-29T11:05:46.478Z,6.00
2023-01-29T11:06:51.177Z,6.10
2023-01-29T11:08:08.208Z,6.10
2023-01-29T11:09:24.524Z,6.10
2023-01-29T11:10:29.444Z,6.20
2023-01-29T11:11:41.918Z,6.20
2023-01-29T11:12:44.823Z,6.20
2023-01-29T11:13:58.335Z,6.20
2023-01-29T11:15:08.289Z,6.20
2023-01-29T11:16:12.074Z,6.20
2023-01-29T11:17:19.839Z,6.20
2023-01-29T11:18:22.003Z,6.20
2023-01-29T11:19:38.804Z,6.20
2023-01-29T11:20:42.466Z,6.30
2023-01-29T11:21:54.383Z,6.30
2023-01-29T11:22:58.081Z,6.30
2023-01-29T11:24:12.743Z,6.30
2023-01-29T11:25:18.541Z,6.30
2023-01-29T11:26:24.029Z,6.30
2023-01-29T11:27:30.329Z,6.20
2023-01-29T11:28:37.988Z,6.20
2023-01-29T11:29:45.586Z,6.20
2023-01-29T11:30:47.965Z,6.20
2023-01-29T11:31:51.431Z,6.20
2023-01-29T11:33:09.957Z,6.10
2023-01-29T11:34:20.361Z,6.10
2023-01-29T11:35:25.970Z,6.10
2023-01-29T11:36:37.187Z,6.10
2023-01-29T11:37:41.987Z,6.10
2023-01-29T11:38:44.147Z,6.10
2023-01-29T11:39:48.152Z,6.10
2023-01-29T11:40:51.455Z,6.10
2023-01-29T11:41:57.194Z,6.10
2023-01-29T11:43:29.054Z,6.10
2023-01-29T11:44:36.530Z,6.00
2023-01-29T11:45:40.735Z,6.00
2023-01-29T11:46:44.304Z,6.00
2023-01-29T11:47:51.624Z,6.00
2023-01-29T11:48:59.423Z,6.00
2023-01-29T11:50:23.208Z,6.00
2023-01-29T11:51:30.043Z,5.90
2023-01-29T11:52:40.763Z,5.90
2023-01-29T11:53:49.503Z,5.90
2023-01-29T11:54:58.281Z,5.90
2023-01-29T11:56:02.984Z,5.90
2023-01-29T11:57:15.643Z,6.00
2023-01-29T11:58:27.989Z,5.90
2023-01-29T11:59:42.752Z,5.90
2023-01-29T12:00:51.667Z,5.90
2023-01-29T12:01:56.631Z,5.90
2023-01-29T12:03:08.569Z,5.90
2023-01-29T12:04:21.574Z,5.90
2023-01-29T12:05:27.510Z,5.90
2023-01-29T12:06:36.983Z,5.90
2023-01-29T12:07:43.978Z,6.00
2023-01-29T12:08:58.087Z,6.00
2023-01-29T12:10:00.780Z,6.00
2023-01-29T12:11:12.798Z,6.10
2023-01-29T12:12:30.122Z,6.10
2023-01-29T12:13:36.148Z,6.10
2023-01-29T12:14:38.755Z,6.20
2023-01-29T12:15:43.693Z,6.20
2023-01-29T12:16:55.081Z,6.30
2023-01-29T12:18:08.341Z,6.30
2023-01-29T12:19:21.458Z,6.30
2023-01-29T12:20:32.758Z,6.40
2023-01-29T12:21:44.530Z,6.40
2023-01-29T12:22:57.125Z,6.40
2023-01-29T12:24:08.067Z,6.40
2023-01-29T12:25:22.942Z,6.50
2023-01-29T12:26:32.768Z,6.50
2023-01-29T12:27:46.165Z,6.40
2023-01-29T12:28:56.045Z,6.50
2023-01-29T12:30:11.464Z,6.50
2023-01-29T12:31:26.230Z,6.60
2023-01-29T12:32:40.315Z,6.60
2023-01-29T12:33:51.042Z,6.60
2023-01-29T12:35:02.464Z,6.70
2023-01-29T12:36:15.435Z,6.70
2023-01-29T12:37:28.593Z,6.70
2023-01-29T12:38:30.785Z,6.80
2023-01-29T12:39:33.893Z,6.80
2023-01-29T12:40:45.208Z,6.90
2023-01-29T12:41:58.843Z,6.80
2023-01-29T12:43:08.094Z,6.90
2023-01-29T12:44:20.790Z,6.90
2023-01-29T12:45:27.550Z,6.90
2023-01-29T12:46:37.287Z,6.90
2023-01-29T12:47:48.759Z,6.90
2023-01-29T12:48:55.881Z,6.90
2023-01-29T12:50:04.558Z,7.00
2023-01-29T12:51:10.679Z,6.90
2023-01-29T12:52:20.109Z,7.00
2023-01-29T12:53:29.620Z,6.90
2023-01-29T12:54:39.265Z,6.90
2023-01-29T12:55:47.767Z,6.90
2023-01-29T12:56:55.079Z,6.90
2023-01-29T12:58:01.253Z,6.90
2023-01-29T12:59:15.363Z,6.80
2023-01-29T13:00:24.752Z,6.80
2023-01-29T13:01:33.313Z,6.70
2023-01-29T13:02:45.206Z,6.70
2023-01-29T13:03:53.837Z,6.70
2023-01-29T13:05:02.548Z,6.60
2023-01-29T13:06:13.776Z,6.60
2023-01-29T13:07:23.675Z,6.70
2023-01-29T13:08:31.665Z,6.60
2023-01-29T13:09:40.138Z,6.60
2023-01-29T13:10:50.149Z,6.60
2023-01-29T13:11:56.802Z,6.70
2023-01-29T13:13:06.133Z,6.70
2023-01-29T13:14:20.266Z,6.70
2023-01-29T13:15:42.619Z,6.70
2023-01-29T13:17:08.407Z,6.70
2023-01-29T13:18:52.872Z,6.70
2023-01-29T13:20:13.673Z,6.70
2023-01-29T13:21:48.595Z,6.60
2023-01-29T13:23:30.645Z,6.60
2023-01-29T13:25:07.056Z,6.60
2023-01-29T13:26:48.918Z,6.60
2023-01-29T13:28:00.108Z,6.60
2023-01-29T13:29:36.463Z,6.60
2023-01-29T13:30:50.463Z,6.60
2023-01-29T13:32:20.024Z,6.60
2023-01-29T13:33:35.214Z,6.60
2023-01-29T13:34:55.691Z,6.70
2023-01-29T13:36:34.162Z,6.80
2023-01-29T13:39:44.586Z,6.90
2023-01-29T13:41:35.593Z,6.90
2023-01-29T13:43:14.871Z,7.00
2023-01-29T13:44:47.573Z,7.00
2023-01-29T13:46:53.337Z,7.00
2023-01-29T13:48:36.937Z,7.10
2023-01-29T13:50:21.192Z,7.10
2023-01-29T13:52:11.223Z,7.10
2023-01-29T13:58:26.099Z,7.20
2023-01-29T14:02:28.768Z,7.30
2023-01-29T14:04:14.699Z,7.30
2023-01-29T14:05:58.868Z,7.20
2023-01-29T14:08:12.293Z,7.20
2023-01-29T14:12:25.323Z,7.10
2023-01-29T14:14:02.731Z,7.10
2023-01-29T14:15:29.347Z,7.10
2023-01-29T14:17:25.289Z,7.00
2023-01-29T14:19:00.253Z,6.90
2023-01-29T14:20:54.518Z,6.80
2023-01-29T14:22:35.016Z,6.70
2023-01-29T14:24:13.703Z,6.60
2023-01-29T14:26:15.217Z,6.60
2023-01-29T14:28:13.004Z,6.50
2023-01-29T14:36:13.704Z,6.40
2023-01-29T14:37:40.758Z,6.40
2023-01-29T14:39:31.997Z,6.30
2023-01-29T14:40:38.358Z,6.30
2023-01-29T14:41:49.967Z,6.20
2023-01-29T14:43:11.474Z,6.20
2023-01-29T14:45:05.534Z,6.20
2023-01-29T14:46:56.530Z,6.20
2023-01-29T14:48:40.317Z,6.20
2023-01-29T14:50:21.281Z,6.20
2023-01-29T14:51:35.320Z,6.20
2023-01-29T14:52:50.861Z,6.10
2023-01-29T14:54:08.157Z,6.10
2023-01-29T14:55:43.854Z,6.10
2023-01-29T14:57:22.039Z,6.10
2023-01-29T14:58:47.356Z,6.00
2023-01-29T14:59:59.737Z,6.00
2023-01-29T15:01:09.361Z,5.90
2023-01-29T15:02:21.310Z,5.90
2023-01-29T15:03:44.547Z,5.90
2023-01-29T15:05:04.638Z,5.90
2023-01-29T15:06:21.397Z,5.90
2023-01-29T15:07:34.966Z,5.90
2023-01-29T15:08:47.861Z,5.80
2023-01-29T15:10:13.511Z,5.90
2023-01-29T15:11:44.512Z,5.90
2023-01-29T15:12:58.126Z,5.90
2023-01-29T15:14:15.126Z,5.90
2023-01-29T15:15:47.874Z,5.90
2023-01-29T15:17:30.219Z,5.90
2023-01-29T15:22:40.745Z,5.90
2023-01-29T15:23:48.724Z,5.90
2023-01-29T15:25:10.490Z,5.90
2023-01-29T15:26:22.000Z,6.00
2023-01-29T15:27:24.540Z,6.00
2023-01-29T15:28:31.769Z,6.00
2023-01-29T15:29:40.985Z,6.00
2023-01-29T15:30:57.991Z,6.10
2023-01-29T15:32:14.183Z,6.10
2023-01-29T15:33:41.735Z,6.20
2023-01-29T15:34:58.651Z,6.20
2023-01-29T15:36:31.656Z,6.20
2023-01-29T15:37:45.349Z,6.20
2023-01-29T15:39:16.332Z,6.20
2023-01-29T15:40:29.938Z,6.20
2023-01-29T15:41:43.337Z,6.20
2023-01-29T15:42:49.703Z,6.20
2023-01-29T15:44:01.410Z,6.20
2023-01-29T15:45:30.626Z,6.20
2023-01-29T15:46:44.639Z,6.10
2023-01-29T15:47:50.164Z,6.20
2023-01-29T15:48:57.255Z,6.20
2023-01-29T15:50:02.603Z,6.20
2023-01-29T15:51:22.731Z,6.20
2023-01-29T15:52:37.681Z,6.20
2023-01-29T15:53:50.593Z,6.20
2023-01-29T15:54:55.324Z,6.20
2023-01-29T15:56:09.335Z,6.20
2023-01-29T15:57:25.925Z,6.20
2023-01-29T15:58:42.483Z,6.20
2023-01-29T15:59:56.565Z,6.20
2023-01-29T16:01:07.478Z,6.10
2023-01-29T16:02:25.553Z,6.10
2023-01-29T16:03:34.124Z,6.10
2023-01-29T16:04:37.645Z,6.10
2023-01-29T16:05:54.083Z,6.10
2023-01-29T16:07:12.610Z,6.10
2023-01-29T16:08:24.889Z,6.10
2023-01-29T16:11:29.430Z,6.10
2023-01-29T16:14:32.354Z,6.10
2023-01-29T16:16:13.934Z,6.10
2023-01-29T16:17:35.387Z,6.10
2023-01-29T16:19:00.391Z,6.10
2023-01-29T16:20:30.952Z,6.00
2023-01-29T16:21:49.745Z,6.00
2023-01-29T16:23:25.340Z,6.00
2023-01-29T16:24:55.562Z,6.00
2023-01-29T16:26:26.659Z,6.00
2023-01-29T16:29:29.940Z,6.00
2023-01-29T16:31:24.507Z,6.00
2023-01-29T16:34:50.508Z,6.00
2023-01-29T16:36:16.819Z,5.90
2023-01-29T16:37:29.173Z,5.90
2023-01-29T16:38:45.551Z,5.90
2023-01-29T16:40:00.721Z,5.80
2023-01-29T16:41:22.175Z,5.90
2023-01-29T16:42:42.967Z,5.80
2023-01-29T16:43:54.966Z,5.80
2023-01-29T16:45:03.626Z,5.80
2023-01-29T16:46:26.641Z,5.80
2023-01-29T16:47:45.183Z,5.80
2023-01-29T16:48:51.330Z,5.80
2023-01-29T16:50:00.803Z,5.80
2023-01-29T16:51:16.268Z,5.80
2023-01-29T16:52:28.392Z,5.80
2023-01-29T16:53:47.124Z,5.80
2023-01-29T16:55:00.285Z,5.80
2023-01-29T16:56:16.542Z,5.80
2023-01-29T16:57:32.321Z,5.80
2023-01-29T17:00:38.005Z,5.70
2023-01-29T17:01:45.709Z,5.80
2023-01-29T17:02:59.973Z,5.80
2023-01-29T17:04:15.118Z,5.80
2023-01-29T17:05:40.757Z,5.80
2023-01-29T17:06:52.841Z,5.80
2023-01-29T17:08:14.575Z,5.80
2023-01-29T17:09:32.799Z,5.80
2023-01-29T17:10:41.020Z,5.80
2023-01-29T17:12:04.303Z,5.80
2023-01-29T17:13:42.879Z,5.70
2023-01-29T17:15:07.104Z,5.70
2023-01-29T17:18:09.788Z,5.70
2023-01-29T17:19:28.094Z,5.70
2023-01-29T17:20:57.526Z,5.70
2023-01-29T17:29:23.655Z,5.90
2023-01-29T17:31:06.212Z,5.90
2023-01-29T17:35:44.679Z,5.80
2023-01-29T17:43:22.786Z,5.90
2023-01-29T17:59:17.024Z,5.50
2023-01-29T18:03:48.354Z,5.50
2023-01-29T18:09:03.975Z,5.50
2023-01-29T18:13:40.664Z,5.50
2023-01-29T21:10:09.814Z,5.00
2023-01-29T22:58:59.188Z,5.30
2023-01-29T23:31:58.691Z,5.00
2023-01-29T23:35:40.967Z,5.00
2023-01-29T23:36:43.504Z,5.00
2023-01-29T23:37:46.881Z,5.00
2023-01-29T23:38:50.550Z,5.00
2023-01-29T23:39:56.417Z,5.00
2023-01-29T23:40:58.896Z,5.00
2023-01-29T23:42:02.623Z,5.00
2023-01-29T23:43:04.990Z,5.00
2023-01-29T23:44:08.465Z,5.00
2023-01-29T23:45:11.506Z,5.00
2023-01-29T23:46:17.639Z,4.90
2023-01-29T23:47:19.946Z,4.90
2023-01-29T23:48:23.605Z,4.90
2023-01-29T23:49:26.879Z,4.90
2023-01-29T23:50:29.191Z,4.90
2023-01-29T23:51:34.129Z,4.90
2023-01-29T23:52:36.511Z,4.90
2023-01-29T23:53:39.940Z,4.90
2023-01-29T23:54:43.223Z,4.90
2023-01-29T23:55:56.512Z,4.90
2023-01-29T23:56:59.712Z,4.90
2023-01-29T23:58:01.998Z,4.80
2023-01-29T23:59:05.301Z,4.90
